MOL Modern — V7VS6 — position and weather

sailwx.info

Track history (hours):
 
Tides and Currents Weather Stations Pressure Air Temp Water Temp Dewpoint Dewpoint Depression Visibility Wind Speed Wind Dir Waves Ship Positions

MOL Modern

Last reported at 2015-Feb-15 12:30 UTC. Time now 2015-Feb-28 19:22 UTC.
Position N 01°49' E 102°31'.
Warning: this ship's position is 13 days out of date.

Length 302 m; draft 12.9 m.

Type: Ship (hazmat cat A). MMSI: 538004203.

Date/timePositionNaut miles runAvg speedWind from/ knotsBaromVisibWave heightAir tempDewpointWater temp
2015-Feb-15 12:30N 01°49' E 102°31'1819.4
2015-Feb-15 11:34N 01°42' E 102°48'1919.1
2015-Feb-15 10:34N 01°33' E 103°05'5117.1
2015-Feb-15 07:33N 01°12' E 103°52'9 8.7
2015-Feb-15 06:33N 01°17' E 103°59'0 0.1
2015-Feb-15 05:31N 01°17' E 103°59'0 0.0
2015-Feb-15 03:25N 01°17' E 103°59'0 0.1
2015-Feb-15 02:31N 01°17' E 103°59'0 0.1
2015-Feb-15 01:25N 01°17' E 103°59'0 0.1
2015-Feb-15 00:32N 01°17' E 103°59'7 7.3
2015-Feb-14 23:33N 01°14' E 103°52'2 2.1
2015-Feb-14 22:28N 01°16' E 103°51'0 0.0
2015-Feb-14 21:28N 01°16' E 103°51'0 0.0
2015-Feb-14 20:22N 01°16' E 103°51'0 0.0
2015-Feb-14 19:28N 01°16' E 103°51'0 0.0
2015-Feb-14 18:28N 01°16' E 103°51'0 0.0
2015-Feb-14 17:28N 01°16' E 103°51'0 0.0
2015-Feb-14 16:28N 01°16' E 103°51'0 0.0
2015-Feb-14 15:22N 01°16' E 103°51'0 0.0
2015-Feb-14 14:28N 01°16' E 103°51'0 0.0
2015-Feb-14 13:31N 01°16' E 103°51'0 0.0
2015-Feb-14 12:25N 01°16' E 103°51'0 0.0
2015-Feb-14 11:28N 01°16' E 103°51'0 0.0
2015-Feb-14 10:28N 01°16' E 103°51'0 0.0
2015-Feb-14 09:31N 01°16' E 103°51'0 0.0
2015-Feb-14 08:28N 01°16' E 103°51'0 0.0
2015-Feb-14 06:10N 01°16' E 103°51'0 0.0
2015-Feb-14 05:28N 01°16' E 103°51'0 0.0
2015-Feb-14 04:16N 01°16' E 103°51'0 0.0
2015-Feb-14 02:28N 01°16' E 103°51'0 0.0
2015-Feb-14 01:28N 01°16' E 103°51'0 0.0
2015-Feb-14 00:10N 01°16' E 103°51'0 0.0
2015-Feb-13 23:10N 01°16' E 103°51'0 0.0
2015-Feb-13 22:10N 01°16' E 103°51'0 0.0
2015-Feb-13 21:28N 01°16' E 103°51'0 0.0
2015-Feb-13 20:31N 01°16' E 103°51'0 0.0
2015-Feb-13 19:22N 01°16' E 103°51'0 0.0
2015-Feb-13 18:16N 01°16' E 103°51'0 0.0
2015-Feb-13 17:28N 01°16' E 103°51'0 0.0
2015-Feb-13 16:28N 01°16' E 103°51'0 0.0
2015-Feb-13 15:31N 01°16' E 103°51'0 0.0
2015-Feb-13 14:28N 01°16' E 103°51'0 0.0
2015-Feb-13 13:28N 01°16' E 103°51'0 0.0
2015-Feb-13 12:22N 01°16' E 103°51'0 0.0
2015-Feb-13 11:22N 01°16' E 103°51'1 1.0
2015-Feb-13 10:33N 01°15' E 103°51'4 4.1
2015-Feb-13 09:33N 01°14' E 103°55'  
2015-Feb-08 20:33N 22°19' E 114°31'21 8.8
2015-Feb-08 18:11N 22°34' E 114°16'0 0.0
2015-Feb-08 17:30N 22°34' E 114°16'0 0.0
2015-Feb-08 16:30N 22°34' E 114°16'0 0.0
2015-Feb-08 15:30N 22°34' E 114°16'0 0.0
2015-Feb-08 14:29N 22°34' E 114°16'0 0.0
2015-Feb-08 12:30N 22°34' E 114°16'0 0.0
2015-Feb-08 11:30N 22°34' E 114°16'0 0.0
2015-Feb-08 10:30N 22°34' E 114°16'0 0.0
2015-Feb-08 08:29N 22°34' E 114°16'0 0.0
2015-Feb-08 07:30N 22°34' E 114°16'0 0.0
2015-Feb-08 06:23N 22°34' E 114°16'0 0.0
2015-Feb-08 05:11N 22°34' E 114°16'0 0.0
2015-Feb-08 04:05N 22°34' E 114°16'0 0.0
2015-Feb-08 03:11N 22°34' E 114°16'0 0.0
2015-Feb-08 02:11N 22°34' E 114°16'0 0.0
2015-Feb-08 00:30N 22°34' E 114°16'0 0.0
2015-Feb-07 23:29N 22°34' E 114°16'0 0.0
2015-Feb-07 22:17N 22°34' E 114°16'0 0.0
2015-Feb-07 21:29N 22°34' E 114°16'0 0.0
2015-Feb-07 20:23N 22°34' E 114°16'0 0.0
2015-Feb-07 18:17N 22°34' E 114°16'0 0.0
2015-Feb-07 17:23N 22°34' E 114°16'0 0.3
2015-Feb-07 16:33N 22°34' E 114°16'13 5.4
2015-Feb-07 14:13N 22°28' E 114°28'812.4
2015-Feb-07 13:33N 22°20' E 114°30'1313.1
2015-Feb-07 12:33N 22°08' E 114°27'1312.3
2015-Feb-07 11:32N 22°08' E 114°13'1111.1
2015-Feb-07 10:34N 22°17' E 114°06'3 3.1
2015-Feb-07 09:31N 22°20' E 114°08'0 0.1
2015-Feb-07 08:31N 22°20' E 114°08'0 0.0
2015-Feb-07 07:31N 22°20' E 114°08'0 0.1
2015-Feb-07 06:31N 22°20' E 114°08'0 0.0
2015-Feb-07 05:22N 22°20' E 114°08'0 0.0
2015-Feb-07 04:13N 22°20' E 114°08'0 0.1
2015-Feb-07 03:31N 22°20' E 114°08'0 0.0
2015-Feb-07 02:19N 22°20' E 114°08'0 0.1
2015-Feb-07 01:13N 22°20' E 114°08'0 0.1
2015-Feb-07 00:19N 22°20' E 114°08'0 0.0
2015-Feb-06 22:25N 22°20' E 114°08'0 0.0
2015-Feb-06 20:28N 22°20' E 114°08'0 0.1
2015-Feb-06 19:28N 22°20' E 114°08'0 0.1
2015-Feb-06 18:31N 22°20' E 114°08'0 0.0
2015-Feb-06 17:31N 22°20' E 114°08'0 0.1
2015-Feb-06 16:31N 22°20' E 114°08'0 0.1
2015-Feb-06 15:31N 22°20' E 114°08'0 0.0
2015-Feb-06 14:22N 22°20' E 114°08'0 0.1
2015-Feb-06 13:31N 22°20' E 114°08'0 0.1
2015-Feb-06 12:31N 22°20' E 114°08'0 0.2
2015-Feb-06 11:33N 22°20' E 114°07'7 6.5
2015-Feb-06 10:24N 22°13' E 114°10'7 8.2
2015-Feb-06 09:29N 22°09' E 114°17'1010.2
2015-Feb-06 08:28N 22°09' E 114°28'18 8.7
2015-Feb-06 06:28N 21°51' E 114°25'  
Track history (hours):
 
Tides and Currents Weather Stations Pressure Air Temp Water Temp Dewpoint Dewpoint Depression Visibility Wind Speed Wind Dir Waves Ship Positions

MOL Modern

Last reported at 2015-Feb-15 12:30 UTC. Time now 2015-Feb-28 19:22 UTC.
Position N 01°49' E 102°31'.
Warning: this ship's position is 13 days out of date.

Length 302 m; draft 12.9 m.

Type: Ship (hazmat cat A). MMSI: 538004203.

Date/timePositionNaut miles runAvg speedWind from/ knotsBaromVisibWave heightAir tempDewpointWater temp
2015-Feb-15 12:30N 01°49' E 102°31'1819.4
2015-Feb-15 11:34N 01°42' E 102°48'1919.1
2015-Feb-15 10:34N 01°33' E 103°05'5117.1
2015-Feb-15 07:33N 01°12' E 103°52'9 8.7
2015-Feb-15 06:33N 01°17' E 103°59'0 0.1
2015-Feb-15 05:31N 01°17' E 103°59'0 0.0
2015-Feb-15 03:25N 01°17' E 103°59'0 0.1
2015-Feb-15 02:31N 01°17' E 103°59'0 0.1
2015-Feb-15 01:25N 01°17' E 103°59'0 0.1
2015-Feb-15 00:32N 01°17' E 103°59'7 7.3
2015-Feb-14 23:33N 01°14' E 103°52'2 2.1
2015-Feb-14 22:28N 01°16' E 103°51'0 0.0
2015-Feb-14 21:28N 01°16' E 103°51'0 0.0
2015-Feb-14 20:22N 01°16' E 103°51'0 0.0
2015-Feb-14 19:28N 01°16' E 103°51'0 0.0
2015-Feb-14 18:28N 01°16' E 103°51'0 0.0
2015-Feb-14 17:28N 01°16' E 103°51'0 0.0
2015-Feb-14 16:28N 01°16' E 103°51'0 0.0
2015-Feb-14 15:22N 01°16' E 103°51'0 0.0
2015-Feb-14 14:28N 01°16' E 103°51'0 0.0
2015-Feb-14 13:31N 01°16' E 103°51'0 0.0
2015-Feb-14 12:25N 01°16' E 103°51'0 0.0
2015-Feb-14 11:28N 01°16' E 103°51'0 0.0
2015-Feb-14 10:28N 01°16' E 103°51'0 0.0
2015-Feb-14 09:31N 01°16' E 103°51'0 0.0
2015-Feb-14 08:28N 01°16' E 103°51'0 0.0
2015-Feb-14 06:10N 01°16' E 103°51'0 0.0
2015-Feb-14 05:28N 01°16' E 103°51'0 0.0
2015-Feb-14 04:16N 01°16' E 103°51'0 0.0
2015-Feb-14 02:28N 01°16' E 103°51'0 0.0
2015-Feb-14 01:28N 01°16' E 103°51'0 0.0
2015-Feb-14 00:10N 01°16' E 103°51'0 0.0
2015-Feb-13 23:10N 01°16' E 103°51'0 0.0
2015-Feb-13 22:10N 01°16' E 103°51'0 0.0
2015-Feb-13 21:28N 01°16' E 103°51'0 0.0
2015-Feb-13 20:31N 01°16' E 103°51'0 0.0
2015-Feb-13 19:22N 01°16' E 103°51'0 0.0
2015-Feb-13 18:16N 01°16' E 103°51'0 0.0
2015-Feb-13 17:28N 01°16' E 103°51'0 0.0
2015-Feb-13 16:28N 01°16' E 103°51'0 0.0
2015-Feb-13 15:31N 01°16' E 103°51'0 0.0
2015-Feb-13 14:28N 01°16' E 103°51'0 0.0
2015-Feb-13 13:28N 01°16' E 103°51'0 0.0
2015-Feb-13 12:22N 01°16' E 103°51'0 0.0
2015-Feb-13 11:22N 01°16' E 103°51'1 1.0
2015-Feb-13 10:33N 01°15' E 103°51'4 4.1
2015-Feb-13 09:33N 01°14' E 103°55'  
2015-Feb-08 20:33N 22°19' E 114°31'21 8.8
2015-Feb-08 18:11N 22°34' E 114°16'0 0.0
2015-Feb-08 17:30N 22°34' E 114°16'0 0.0
2015-Feb-08 16:30N 22°34' E 114°16'0 0.0
2015-Feb-08 15:30N 22°34' E 114°16'0 0.0
2015-Feb-08 14:29N 22°34' E 114°16'0 0.0
2015-Feb-08 12:30N 22°34' E 114°16'0 0.0
2015-Feb-08 11:30N 22°34' E 114°16'0 0.0
2015-Feb-08 10:30N 22°34' E 114°16'0 0.0
2015-Feb-08 08:29N 22°34' E 114°16'0 0.0
2015-Feb-08 07:30N 22°34' E 114°16'0 0.0
2015-Feb-08 06:23N 22°34' E 114°16'0 0.0
2015-Feb-08 05:11N 22°34' E 114°16'0 0.0
2015-Feb-08 04:05N 22°34' E 114°16'0 0.0
2015-Feb-08 03:11N 22°34' E 114°16'0 0.0
2015-Feb-08 02:11N 22°34' E 114°16'0 0.0
2015-Feb-08 00:30N 22°34' E 114°16'0 0.0
2015-Feb-07 23:29N 22°34' E 114°16'0 0.0
2015-Feb-07 22:17N 22°34' E 114°16'0 0.0
2015-Feb-07 21:29N 22°34' E 114°16'0 0.0
2015-Feb-07 20:23N 22°34' E 114°16'0 0.0
2015-Feb-07 18:17N 22°34' E 114°16'0 0.0
2015-Feb-07 17:23N 22°34' E 114°16'0 0.3
2015-Feb-07 16:33N 22°34' E 114°16'13 5.4
2015-Feb-07 14:13N 22°28' E 114°28'812.4
2015-Feb-07 13:33N 22°20' E 114°30'1313.1
2015-Feb-07 12:33N 22°08' E 114°27'1312.3
2015-Feb-07 11:32N 22°08' E 114°13'1111.1
2015-Feb-07 10:34N 22°17' E 114°06'3 3.1
2015-Feb-07 09:31N 22°20' E 114°08'0 0.1
2015-Feb-07 08:31N 22°20' E 114°08'0 0.0
2015-Feb-07 07:31N 22°20' E 114°08'0 0.1
2015-Feb-07 06:31N 22°20' E 114°08'0 0.0
2015-Feb-07 05:22N 22°20' E 114°08'0 0.0
2015-Feb-07 04:13N 22°20' E 114°08'0 0.1
2015-Feb-07 03:31N 22°20' E 114°08'0 0.0
2015-Feb-07 02:19N 22°20' E 114°08'0 0.1
2015-Feb-07 01:13N 22°20' E 114°08'0 0.1
2015-Feb-07 00:19N 22°20' E 114°08'0 0.0
2015-Feb-06 22:25N 22°20' E 114°08'0 0.0
2015-Feb-06 20:28N 22°20' E 114°08'0 0.1
2015-Feb-06 19:28N 22°20' E 114°08'0 0.1
2015-Feb-06 18:31N 22°20' E 114°08'0 0.0
2015-Feb-06 17:31N 22°20' E 114°08'0 0.1
2015-Feb-06 16:31N 22°20' E 114°08'0 0.1
2015-Feb-06 15:31N 22°20' E 114°08'0 0.0
2015-Feb-06 14:22N 22°20' E 114°08'0 0.1
2015-Feb-06 13:31N 22°20' E 114°08'0 0.1
2015-Feb-06 12:31N 22°20' E 114°08'0 0.2
2015-Feb-06 11:33N 22°20' E 114°07'7 6.5
2015-Feb-06 10:24N 22°13' E 114°10'7 8.2
2015-Feb-06 09:29N 22°09' E 114°17'1010.2
2015-Feb-06 08:28N 22°09' E 114°28'18 8.7
2015-Feb-06 06:28N 21°51' E 114°25'  

Dump ship's entire track history